ソウル/仁川 の空港の天気 - METARとTAF

仁川国際空港 ( RKSI / ICN ) - 韓国 仁川広域市 (ソウル特別市近郊)
飛行場実況気象(Metar)
観測時間01/17 04:30 KST (01/16 19:30 UTC)
風向・風速北東 2m/s
視程10km以上
天気現象
なし
気温-7℃
湿度62%
気圧1028hPa
METARRKSI 161930Z 04004KT CAVOK M07/M13 Q1028 NOSIG
過去の天気等 Google飛行場航空写真 Wunderground天気予報

過去48時間のMETAR

飛行場予報(TAF)
発表時間: 1/17 02:00 KST (1/16 17:00 UTC)
予報対象時間: 17日3時 KST ~ 18日9時 KST
風向・風速北北西 3m/s
視程10km以上
なし
17日6時 KST ~ 17日7時 KST に徐々に
風向・風速東北東 3m/s
17日13時 KST ~ 17日14時 KST に徐々に
風向・風速西 4m/s
視程4000m
天気現象弱い雪
少しの雲 雲底高度 300m
全天の8割程度の雲 雲底高度 760m
全天を覆う雲 雲底高度 1830m
17日15時 KST ~ 17日16時 KST に徐々に
風向・風速北西 9m/s 瞬間風速 18m/s
視程7000m
天気現象運行に影響にある天気現象が終了
全天の4割程度の雲 雲底高度 910m
17日20時 KST ~ 17日21時 KST に徐々に
風向・風速北北西 8m/s 瞬間風速 13m/s
18日2時 KST ~ 18日3時 KST に徐々に
風向・風速北北西 5m/s
TAF RKSI 161700Z 1618/1724 34005KT CAVOK TNM09/1622Z TX00/1707Z TNM09/1722Z
BECMG 1621/1622 07005KT
BECMG 1704/1705 26008KT 4000 -SN FEW010 BKN025 OVC060
BECMG 1706/1707 32018G35KT 7000 NSW SCT030
BECMG 1711/1712 33015G25KT
BECMG 1717/1718 33010KT